Time;durP1;ratioP1;P1;durP2;ratioP2;P2;SDS_P1;SDS_P2;PMS_P1;PMS_P2;Temp;Humidity;BMP_temperature;BMP_pressure;BME280_temperature;BME280_humidity;BME280_pressure;Samples;Min_cycle;Max_cycle;Signal;HPM_P1;HPM_P2
2021/07/28 00:04:21;;;;;;;6.45;5.95;;;;;;;21.61;63.04;100236.71;259925;1096;114913;-73
2021/07/28 00:09:26;;;;;;;6.23;5.53;;;;;;;21.32;64.09;100239.16;258673;1095;114940;-76
2021/07/28 00:14:30;;;;;;;6.08;5.68;;;;;;;21.43;62.99;100240.30;257347;1095;115036;-74
2021/07/28 00:19:46;;;;;;;5.70;5.30;;;;;;;21.39;63.20;100228.36;258802;1096;114788;-72
2021/07/28 00:24:54;;;;;;;5.95;5.35;;;;;;;21.15;65.63;100233.59;257289;1097;114636;-73
2021/07/28 00:29:57;;;;;;;9.05;8.25;;;;;;;20.84;66.71;100242.65;258500;1096;114327;-73
2021/07/28 00:34:59;;;;;;;9.05;8.15;;;;;;;20.82;65.95;100230.48;260639;1095;114449;-73
2021/07/28 00:40:04;;;;;;;7.85;7.13;;;;;;;20.89;65.68;100236.59;260375;1096;114385;-76
2021/07/28 00:45:12;;;;;;;7.70;6.90;;;;;;;21.01;65.02;100226.73;260621;1095;114824;-73
2021/07/28 00:50:14;;;;;;;6.55;5.98;;;;;;;20.96;64.92;100224.73;258713;1095;115168;-75
2021/07/28 00:55:22;;;;;;;7.68;6.48;;;;;;;20.85;65.45;100227.35;258927;1096;114837;-76
2021/07/28 01:00:28;;;;;;;7.23;6.53;;;;;;;20.77;65.56;100218.55;260376;1095;114418;-74
2021/07/28 01:05:31;;;;;;;6.78;5.98;;;;;;;20.78;65.64;100233.60;259296;1096;114545;-73
2021/07/28 01:10:34;;;;;;;7.65;6.90;;;;;;;20.79;65.33;100240.64;258166;1097;114515;-72
2021/07/28 01:20:44;;;;;;;7.23;6.20;;;;;;;20.71;66.01;100246.31;257926;1096;114938;-72
2021/07/28 01:25:53;;;;;;;6.58;6.00;;;;;;;20.28;67.55;100244.43;258568;1095;114613;-75
2021/07/28 01:31:07;;;;;;;6.58;5.95;;;;;;;20.01;69.29;100248.34;259619;1096;114464;-73
2021/07/28 01:36:15;;;;;;;6.48;5.98;;;;;;;20.05;68.68;100249.59;256566;1096;114345;-72
2021/07/28 01:41:19;;;;;;;6.48;5.90;;;;;;;20.41;67.16;100250.72;258336;1096;114621;-73
2021/07/28 01:46:24;;;;;;;8.03;7.08;;;;;;;20.45;66.81;100246.55;257332;1096;114435;-74
2021/07/28 01:51:30;;;;;;;6.78;6.15;;;;;;;20.52;66.24;100241.97;255901;1096;114416;-72
2021/07/28 01:56:42;;;;;;;6.73;6.00;;;;;;;20.68;65.14;100233.33;258855;1096;114818;-74
2021/07/28 02:01:49;;;;;;;8.08;6.30;;;;;;;20.69;65.17;100229.58;257645;1096;114342;-74
2021/07/28 02:06:51;;;;;;;7.20;6.53;;;;;;;20.61;67.32;100232.56;257999;1095;114320;-73
2021/07/28 02:11:54;;;;;;;7.07;6.47;;;;;;;20.37;68.24;100236.09;257844;1096;114439;-73
2021/07/28 02:16:59;;;;;;;8.43;6.43;;;;;;;20.27;67.22;100234.71;258625;1096;114510;-73
2021/07/28 02:22:05;;;;;;;7.13;6.47;;;;;;;20.24;66.78;100237.83;258369;1096;114692;-72
2021/07/28 02:27:08;;;;;;;8.08;6.83;;;;;;;20.39;65.74;100236.67;257022;1096;114498;-73
2021/07/28 02:32:10;;;;;;;6.98;6.45;;;;;;;20.41;67.07;100231.92;257709;1096;114342;-72
2021/07/28 02:37:18;;;;;;;6.80;6.20;;;;;;;20.39;66.23;100228.63;259280;1095;114437;-72
2021/07/28 02:42:26;;;;;;;7.00;6.05;;;;;;;20.25;66.40;100234.13;257542;1095;114596;-62
2021/07/28 02:47:28;;;;;;;6.80;6.15;;;;;;;20.15;66.69;100224.92;256747;1096;114892;-73
2021/07/28 02:52:31;;;;;;;7.55;6.85;;;;;;;20.18;66.83;100228.00;257963;1096;114519;-73
2021/07/28 02:57:35;;;;;;;7.90;7.18;;;;;;;20.19;68.41;100232.31;258405;1095;114371;-71
2021/07/28 03:02:37;;;;;;;8.93;7.87;;;;;;;19.87;70.22;100236.09;257481;1095;114564;-73
2021/07/28 03:07:40;;;;;;;8.90;8.10;;;;;;;19.70;70.63;100231.27;257478;1096;114440;-72
2021/07/28 03:12:48;;;;;;;8.53;7.73;;;;;;;19.76;68.77;100234.92;259591;1095;114562;-74
2021/07/28 03:17:59;;;;;;;7.95;7.25;;;;;;;19.66;69.34;100230.05;259217;1095;114777;-73
2021/07/28 03:23:05;;;;;;;8.85;7.40;;;;;;;19.60;69.34;100238.92;258591;1096;114320;-72
2021/07/28 03:28:07;;;;;;;7.10;6.43;;;;;;;19.62;69.19;100250.30;257966;1096;114307;-73
2021/07/28 03:33:11;;;;;;;8.53;6.93;;;;;;;19.67;68.78;100230.88;255846;1096;114597;-72
2021/07/28 03:38:20;;;;;;;7.93;7.13;;;;;;;19.70;68.49;100236.63;257782;1094;114622;-73
2021/07/28 03:43:23;;;;;;;6.90;6.18;;;;;;;19.66;68.88;100243.47;256486;1096;114534;-73
2021/07/28 03:48:30;;;;;;;7.68;7.00;;;;;;;19.56;69.77;100246.57;257388;1096;114545;-72
2021/07/28 03:53:34;;;;;;;6.85;6.25;;;;;;;19.74;68.03;100251.25;256171;1095;115500;-73
2021/07/28 03:58:37;;;;;;;6.55;5.95;;;;;;;19.80;68.21;100242.31;257643;1096;114338;-73
2021/07/28 04:03:41;;;;;;;6.55;6.05;;;;;;;20.03;67.71;100240.92;257755;1096;114162;-73
2021/07/28 04:08:43;;;;;;;;;;;;;;;20.01;68.12;100232.25;258941;1095;114976;-73
2021/07/28 04:13:49;;;;;;;7.40;6.70;;;;;;;20.02;67.41;100239.28;262110;1095;103080;-74
2021/07/28 04:18:58;;;;;;;6.55;5.80;;;;;;;20.12;67.39;100247.64;260871;1096;114359;-74
2021/07/28 04:24:00;;;;;;;6.83;6.23;;;;;;;20.27;66.81;100242.77;260636;1096;114265;-73
2021/07/28 04:29:03;;;;;;;7.58;6.43;;;;;;;20.40;67.09;100244.53;258260;1096;115275;-72
2021/07/28 04:34:05;;;;;;;7.38;6.78;;;;;;;20.45;67.48;100243.86;257901;1096;114208;-75
2021/07/28 04:39:07;;;;;;;7.08;6.48;;;;;;;20.54;66.87;100234.50;258370;1095;114898;-74
2021/07/28 04:44:14;;;;;;;7.88;7.00;;;;;;;20.53;67.59;100232.86;257651;1095;114374;-78
2021/07/28 04:49:24;;;;;;;8.50;6.25;;;;;;;20.66;67.21;100246.14;257339;1096;115542;-75
2021/07/28 04:54:31;;;;;;;7.00;6.28;;;;;;;20.85;66.67;100227.35;258674;1096;114273;-75
2021/07/28 04:59:33;;;;;;;6.38;5.88;;;;;;;20.96;66.99;100235.48;258359;1096;114715;-74
2021/07/28 05:04:35;;;;;;;6.60;5.90;;;;;;;21.01;66.51;100232.92;260031;1095;113650;-72
2021/07/28 05:09:43;;;;;;;6.63;6.03;;;;;;;21.15;66.45;100217.47;260034;1096;114193;-75
2021/07/28 05:14:46;;;;;;;6.33;5.73;;;;;;;21.18;67.48;100217.03;259421;1095;114529;-78
2021/07/28 05:19:49;;;;;;;6.28;5.70;;;;;;;21.25;67.43;100217.73;258230;1096;114752;-74
2021/07/28 05:24:52;;;;;;;8.58;6.73;;;;;;;21.37;66.68;100208.92;257798;1096;114759;-73
2021/07/28 05:29:55;;;;;;;6.13;5.35;;;;;;;21.54;65.82;100215.31;258617;1096;115076;-75
2021/07/28 05:34:58;;;;;;;6.08;5.53;;;;;;;21.73;65.99;100208.81;258090;1096;113132;-74
2021/07/28 05:40:00;;;;;;;6.43;5.83;;;;;;;21.84;66.16;100209.05;258119;1095;114308;-74
2021/07/28 05:45:02;;;;;;;5.55;5.05;;;;;;;21.87;64.79;100219.36;258513;1096;114462;-74
2021/07/28 05:50:05;;;;;;;5.48;4.98;;;;;;;21.95;65.21;100213.63;258130;1096;113916;-75
2021/07/28 05:55:14;;;;;;;7.35;6.43;;;;;;;22.05;65.40;100221.97;259360;1096;114058;-76
2021/07/28 06:00:21;;;;;;;23.50;10.20;;;;;;;22.22;65.83;100216.73;257896;1096;114054;-75
2021/07/28 06:05:23;;;;;;;10.83;6.45;;;;;;;22.44;65.10;100211.58;258996;1096;114572;-73
2021/07/28 06:10:30;;;;;;;6.38;4.88;;;;;;;22.63;62.33;100210.39;258152;1096;114599;-77
2021/07/28 06:15:34;;;;;;;10.53;5.00;;;;;;;22.79;61.93;100213.41;258733;1095;114422;-78
2021/07/28 06:20:44;;;;;;;7.05;5.30;;;;;;;22.86;63.18;100208.68;258393;1096;114522;-78
2021/07/28 06:25:50;;;;;;;6.88;4.73;;;;;;;22.92;61.06;100215.86;258404;1096;114307;-76
2021/07/28 06:30:53;;;;;;;6.68;5.23;;;;;;;23.07;62.29;100201.88;259036;1096;114621;-78
2021/07/28 06:41:06;;;;;;;5.05;4.30;;;;;;;23.56;59.22;100211.16;258824;1094;114081;-79
2021/07/28 06:46:12;;;;;;;6.13;4.43;;;;;;;23.77;58.37;100201.55;258819;1095;114753;-77
2021/07/28 06:51:19;;;;;;;5.13;4.00;;;;;;;23.88;58.38;100207.94;258026;1096;114378;-75
2021/07/28 06:56:21;;;;;;;3.90;3.60;;;;;;;23.83;58.34;100199.73;258732;1096;114294;-74
2021/07/28 07:01:26;;;;;;;4.03;3.73;;;;;;;23.82;56.65;100208.91;258211;1096;114379;-74
2021/07/28 07:06:28;;;;;;;5.00;4.50;;;;;;;23.89;58.54;100204.98;258788;1094;114364;-75
2021/07/28 07:11:30;;;;;;;5.15;4.15;;;;;;;23.91;57.56;100202.88;258479;1095;114622;-74
2021/07/28 07:16:35;;;;;;;4.63;4.28;;;;;;;23.96;59.10;100194.03;258615;1096;114398;-75
2021/07/28 07:21:39;;;;;;;4.03;3.75;;;;;;;23.92;58.18;100195.59;258034;1095;114647;-63
2021/07/28 07:26:43;;;;;;;4.13;3.83;;;;;;;23.88;58.49;100189.05;258714;1095;114232;-66
2021/07/28 07:31:50;;;;;;;4.67;4.33;;;;;;;23.85;59.29;100181.44;259122;1096;114544;-76
2021/07/28 07:36:55;;;;;;;4.68;4.20;;;;;;;23.87;58.66;100179.29;260756;1096;113755;-76
2021/07/28 07:42:11;;;;;;;4.20;3.90;;;;;;;23.84;60.22;100180.63;259650;1096;114378;-74
2021/07/28 07:47:14;;;;;;;6.83;5.30;;;;;;;23.82;61.16;100169.23;259833;1097;114991;-75
2021/07/28 07:52:16;;;;;;;7.43;5.53;;;;;;;23.93;60.99;100181.02;258687;1095;115236;-79
2021/07/28 07:57:18;;;;;;;5.65;5.15;;;;;;;24.09;60.31;100171.27;257305;1096;114282;-77
2021/07/28 08:02:20;;;;;;;6.23;5.63;;;;;;;24.21;61.85;100169.28;257551;1096;114873;-73
2021/07/28 08:07:22;;;;;;;4.78;4.35;;;;;;;24.23;59.97;100166.35;258221;1095;114656;-77
2021/07/28 08:12:24;;;;;;;7.43;5.87;;;;;;;24.25;59.82;100166.91;258099;1096;114590;-76
2021/07/28 08:17:26;;;;;;;7.58;6.93;;;;;;;24.29;60.46;100158.05;258149;1096;114247;-75
2021/07/28 08:22:29;;;;;;;9.83;8.83;;;;;;;24.37;60.44;100157.62;258921;1096;114285;-74
2021/07/28 08:27:38;;;;;;;5.70;5.13;;;;;;;24.44;60.35;100157.48;257145;1097;114427;-75
2021/07/28 08:32:42;;;;;;;6.58;5.98;;;;;;;24.51;59.21;100163.52;257988;1095;114227;-74
2021/07/28 08:37:45;;;;;;;6.90;6.30;;;;;;;24.52;60.12;100157.03;258215;1097;114260;-77
2021/07/28 08:42:49;;;;;;;6.60;5.85;;;;;;;24.71;59.12;100151.33;258670;1096;114433;-76
2021/07/28 08:47:52;;;;;;;7.28;6.58;;;;;;;24.69;60.03;100144.30;258216;1096;114522;-75
2021/07/28 08:53:04;;;;;;;7.15;6.35;;;;;;;24.81;59.09;100146.02;258963;1096;114488;-74
2021/07/28 08:58:17;;;;;;;6.25;5.15;;;;;;;25.07;57.79;100134.41;257962;1096;114943;-75
2021/07/28 09:03:19;;;;;;;5.73;5.33;;;;;;;25.34;58.38;100134.44;260215;1095;114455;-75
2021/07/28 09:08:26;;;;;;;5.58;5.08;;;;;;;25.48;55.72;100128.62;258514;1096;114681;-76
2021/07/28 09:13:39;;;;;;;5.30;4.80;;;;;;;25.73;55.40;100128.80;257700;1096;114591;-65
2021/07/28 09:18:48;;;;;;;5.03;4.63;;;;;;;26.05;51.19;100128.77;258159;1096;114805;-75
2021/07/28 09:24:10;;;;;;;5.25;4.80;;;;;;;26.26;50.75;100126.20;258002;1095;114487;-77
2021/07/28 09:29:25;;;;;;;4.50;4.13;;;;;;;26.38;48.45;100121.38;257867;1096;114237;-74
2021/07/28 09:34:31;;;;;;;6.90;6.30;;;;;;;26.32;52.14;100114.28;258055;1096;114300;-80
2021/07/28 09:39:36;;;;;;;5.70;5.10;;;;;;;26.62;50.99;100117.16;258750;1096;114584;-79
2021/07/28 09:44:43;;;;;;;5.23;4.73;;;;;;;26.56;49.46;100112.78;260325;1094;114498;-74
2021/07/28 09:49:47;;;;;;;6.33;4.80;;;;;;;26.67;50.50;100110.13;258572;1096;114390;-75
2021/07/28 09:54:55;;;;;;;5.15;4.70;;;;;;;26.96;48.46;100111.30;258733;1095;114344;-75
2021/07/28 10:00:06;;;;;;;5.43;4.93;;;;;;;26.93;47.83;100105.59;257700;1096;114413;-63
2021/07/28 10:05:11;;;;;;;6.35;4.93;;;;;;;27.12;48.85;100109.45;257980;1094;114976;-75
2021/07/28 10:10:18;;;;;;;5.48;4.98;;;;;;;27.26;46.96;100105.09;258614;1095;115392;-73
2021/07/28 10:15:23;;;;;;;5.55;5.05;;;;;;;27.39;44.44;100109.20;258972;1095;115048;-77
2021/07/28 10:20:26;;;;;;;4.97;4.43;;;;;;;27.37;46.79;100100.50;259643;1095;114999;-74
2021/07/28 10:25:31;;;;;;;5.43;5.03;;;;;;;27.50;46.66;100093.70;258834;1096;115004;-77
2021/07/28 10:30:35;;;;;;;4.78;4.35;;;;;;;27.65;46.75;100095.59;258818;1096;114583;-77
2021/07/28 10:35:48;;;;;;;;;;;;;;;27.76;45.53;100091.81;257991;1095;114493;-75
2021/07/28 10:40:52;;;;;;;5.98;5.48;;;;;;;27.69;47.83;100085.81;257276;1096;103071;-74
2021/07/28 10:45:59;;;;;;;5.67;4.83;;;;;;;27.82;47.04;100088.02;258179;1096;114451;-74
2021/07/28 10:51:02;;;;;;;5.00;4.60;;;;;;;27.96;44.81;100085.52;258535;1096;114268;-75
2021/07/28 11:01:07;;;;;;;;;;;;;;;28.29;44.45;100084.06;259167;1095;115116;-74
2021/07/28 11:11:22;;;;;;;5.35;4.90;;;;;;;28.47;43.23;100071.77;261273;1090;114126;-75
2021/07/28 11:16:28;;;;;;;5.48;4.90;;;;;;;28.89;43.45;100065.80;258584;1096;114259;-76
2021/07/28 11:21:32;;;;;;;5.28;4.83;;;;;;;28.93;42.39;100066.87;260554;1095;115185;-75
2021/07/28 11:26:45;;;;;;;5.58;5.18;;;;;;;29.08;42.17;100062.45;259591;1094;114986;-76
2021/07/28 11:31:48;;;;;;;6.10;5.50;;;;;;;29.37;42.01;100062.47;258912;1096;114864;-74
2021/07/28 11:37:03;;;;;;;5.63;5.13;;;;;;;29.69;41.80;100067.39;258312;1096;114850;-75
2021/07/28 11:42:08;;;;;;;5.80;5.40;;;;;;;29.66;42.26;100040.72;258170;1096;114561;-76
2021/07/28 11:47:11;;;;;;;5.63;5.13;;;;;;;29.83;42.69;100046.52;258071;1096;114916;-75
2021/07/28 11:52:13;;;;;;;6.35;5.50;;;;;;;29.82;40.41;100044.90;258072;1095;114946;-75
2021/07/28 11:57:17;;;;;;;5.07;4.57;;;;;;;29.70;41.06;100036.32;257643;1096;115030;-75
2021/07/28 12:02:21;;;;;;;6.65;6.05;;;;;;;29.31;43.32;100029.05;259442;1096;114890;-74
2021/07/28 12:07:26;;;;;;;6.00;5.43;;;;;;;29.16;43.69;100015.58;257967;1094;115384;-78
2021/07/28 12:12:34;;;;;;;7.30;5.70;;;;;;;29.12;43.21;100019.97;258203;1095;114292;-79
2021/07/28 12:17:50;;;;;;;7.75;5.35;;;;;;;29.29;40.65;100014.89;257932;1095;114765;-75
2021/07/28 12:22:59;;;;;;;5.53;5.10;;;;;;;29.26;43.29;100016.30;257823;1096;114411;-77
2021/07/28 12:28:05;;;;;;;6.63;5.95;;;;;;;29.34;44.18;100006.70;258392;1096;114340;-78
2021/07/28 12:33:16;;;;;;;7.10;5.70;;;;;;;29.16;42.70;100005.49;259553;1096;115012;-77
2021/07/28 12:38:30;;;;;;;5.80;5.40;;;;;;;29.11;43.71;100002.02;258196;1096;114381;-77
2021/07/28 12:43:37;;;;;;;6.18;5.58;;;;;;;29.31;42.32;99999.10;259033;1095;115014;-76
2021/07/28 12:48:41;;;;;;;6.03;5.53;;;;;;;29.30;42.22;99990.13;259198;1095;114904;-75
2021/07/28 12:53:45;;;;;;;5.60;5.20;;;;;;;29.34;42.20;99990.37;259475;1095;114575;-75
2021/07/28 13:09:25;;;;;;;7.93;6.17;;;;;;;29.45;41.90;99975.55;258037;1094;114047;-75
2021/07/28 13:14:28;;;;;;;6.30;5.70;;;;;;;29.41;42.03;99969.06;259015;1095;114137;-74
2021/07/28 13:19:33;;;;;;;5.85;5.40;;;;;;;29.40;41.08;99955.72;258436;1096;115250;-76
2021/07/28 13:24:39;;;;;;;6.45;5.85;;;;;;;29.34;41.58;99954.98;258437;1096;114290;-75
2021/07/28 13:29:41;;;;;;;5.68;5.25;;;;;;;29.57;40.20;99960.70;257333;1096;114640;-75
2021/07/28 13:34:43;;;;;;;5.80;5.20;;;;;;;29.53;41.80;99950.41;258298;1096;114107;-75
2021/07/28 13:39:45;;;;;;;7.45;5.63;;;;;;;29.61;41.80;99950.88;260060;1095;114651;-65
2021/07/28 13:44:47;;;;;;;5.85;5.30;;;;;;;29.66;41.99;99948.12;259035;1095;114457;-77
2021/07/28 13:49:55;;;;;;;6.35;4.90;;;;;;;29.57;40.29;99938.91;258432;1096;114221;-75
2021/07/28 13:55:04;;;;;;;5.20;4.80;;;;;;;29.66;38.78;99931.77;259524;1097;114217;-76
2021/07/28 14:00:14;;;;;;;5.13;4.55;;;;;;;29.57;39.62;99928.02;258286;1096;114681;-75
2021/07/28 14:05:16;;;;;;;5.10;4.70;;;;;;;29.57;37.61;99919.85;258251;1096;114892;-74
2021/07/28 14:10:20;;;;;;;5.28;4.78;;;;;;;29.65;38.63;99913.81;258283;1095;114106;-75
2021/07/28 14:15:23;;;;;;;5.80;5.28;;;;;;;29.66;39.38;99899.09;260830;1091;114694;-74
2021/07/28 14:20:26;;;;;;;5.03;4.43;;;;;;;29.95;37.88;99897.05;258610;1096;114088;-74
2021/07/28 14:25:29;;;;;;;4.65;4.25;;;;;;;29.78;35.38;99896.75;258272;1095;114890;-75
2021/07/28 14:30:31;;;;;;;4.40;4.10;;;;;;;29.77;35.91;99879.59;258193;1096;114248;-74
2021/07/28 14:35:33;;;;;;;5.20;4.73;;;;;;;30.06;37.64;99891.46;258123;1096;114094;-77
2021/07/28 14:40:35;;;;;;;4.70;4.33;;;;;;;30.11;37.28;99878.55;258977;1096;114109;-75
2021/07/28 14:45:37;;;;;;;4.83;4.43;;;;;;;30.10;37.53;99878.86;260799;1095;114842;-78
2021/07/28 14:50:40;;;;;;;5.25;4.85;;;;;;;30.11;37.22;99878.55;261604;1096;113686;-77
2021/07/28 14:55:42;;;;;;;5.58;4.55;;;;;;;30.13;35.87;99870.10;259832;1095;114782;-63
2021/07/28 15:00:45;;;;;;;4.63;4.33;;;;;;;30.06;36.13;99866.94;257872;1095;114707;-74
2021/07/28 15:05:51;;;;;;;4.95;4.65;;;;;;;30.05;36.77;99857.14;258427;1096;114565;-78
2021/07/28 15:10:58;;;;;;;5.73;4.65;;;;;;;30.09;35.66;99863.63;258417;1094;114643;-79
2021/07/28 15:16:00;;;;;;;;;;;;;;;29.84;36.03;99865.63;259235;1096;114444;-73
2021/07/28 15:21:06;;;;;;;4.50;4.03;;;;;;;29.81;37.30;99860.75;260130;1096;103000;-78
2021/07/28 15:26:14;;;;;;;4.60;4.20;;;;;;;29.76;37.18;99849.91;258860;1095;114384;-75
2021/07/28 15:31:17;;;;;;;4.53;4.03;;;;;;;29.72;36.53;99840.70;257579;1096;114651;-80
2021/07/28 15:36:20;;;;;;;5.35;4.50;;;;;;;29.77;35.81;99825.11;258169;1096;114088;-78
2021/07/28 15:41:22;;;;;;;;;;;;;;;30.04;35.24;99820.91;258212;1095;114906;-77
2021/07/28 15:46:25;;;;;;;5.08;4.63;;;;;;;29.94;36.06;99810.16;258673;1095;103115;-78
2021/07/28 15:51:28;;;;;;;4.83;4.43;;;;;;;29.96;34.96;99813.41;258356;1096;114231;-80
2021/07/28 15:56:30;;;;;;;4.90;4.50;;;;;;;29.71;35.80;99814.58;258378;1096;114351;-77
2021/07/28 16:01:33;;;;;;;5.00;4.60;;;;;;;29.49;36.50;99805.05;258803;1095;114555;-77
2021/07/28 16:06:35;;;;;;;5.00;4.50;;;;;;;29.24;37.17;99794.48;257382;1095;114778;-76
2021/07/28 16:11:37;;;;;;;5.33;4.88;;;;;;;29.09;38.23;99786.50;258222;1096;114811;-77
2021/07/28 16:16:43;;;;;;;5.58;4.58;;;;;;;29.10;38.34;99788.11;256739;1096;114150;-76
2021/07/28 16:21:48;;;;;;;5.27;4.80;;;;;;;28.99;38.47;99777.38;256810;1096;114169;-78
2021/07/28 16:26:50;;;;;;;4.80;4.40;;;;;;;28.93;38.64;99781.20;257018;1095;114364;-77
2021/07/28 16:31:53;;;;;;;5.65;5.20;;;;;;;28.89;39.59;99782.89;257387;1096;114160;-76
2021/07/28 16:36:55;;;;;;;5.53;5.08;;;;;;;28.88;39.52;99775.83;257280;1096;114255;-76
2021/07/28 16:41:57;;;;;;;5.50;5.10;;;;;;;28.89;40.13;99782.08;257232;1095;114968;-76
2021/07/28 16:47:00;;;;;;;5.80;5.30;;;;;;;28.78;40.83;99792.25;257057;1096;114356;-74
2021/07/28 16:52:02;;;;;;;5.55;5.10;;;;;;;28.67;41.64;99802.45;257738;1096;114268;-79
2021/07/28 16:57:05;;;;;;;5.98;5.53;;;;;;;28.59;42.23;99811.20;257576;1096;113854;-76
2021/07/28 17:02:10;;;;;;;6.35;5.65;;;;;;;28.47;42.34;99803.43;257451;1096;114076;-76
2021/07/28 17:07:14;;;;;;;5.83;5.33;;;;;;;28.36;43.19;99807.33;257172;1094;114803;-75
2021/07/28 17:12:18;;;;;;;6.35;5.68;;;;;;;28.31;43.44;99804.64;256956;1096;114526;-78
2021/07/28 17:17:20;;;;;;;;;;;;;;;28.20;43.34;99795.75;258690;1096;114683;-78
2021/07/28 17:22:22;;;;;;;6.88;5.18;;;;;;;28.08;43.56;99787.97;258098;1096;103136;-75
2021/07/28 17:27:24;;;;;;;6.37;5.77;;;;;;;28.02;44.03;99785.59;258295;1096;113223;-77
2021/07/28 17:32:27;;;;;;;5.35;4.88;;;;;;;27.97;43.79;99781.02;258128;1096;113344;-75
2021/07/28 17:37:49;;;;;;;6.13;5.55;;;;;;;27.94;44.63;99783.48;258201;1096;113273;-76
2021/07/28 17:42:55;;;;;;;5.80;5.30;;;;;;;27.81;45.26;99771.33;257453;1096;114313;-76
2021/07/28 17:47:57;;;;;;;6.58;5.63;;;;;;;27.67;46.04;99768.42;257672;1095;114740;-77
2021/07/28 17:52:59;;;;;;;6.05;5.55;;;;;;;27.61;46.01;99773.05;256952;1096;114998;-76
2021/07/28 17:58:02;;;;;;;6.58;6.08;;;;;;;27.50;46.02;99779.66;257246;1096;115032;-76
2021/07/28 18:03:07;;;;;;;6.45;5.90;;;;;;;27.48;46.39;99775.59;257124;1096;114792;-80
2021/07/28 18:08:11;;;;;;;5.98;5.25;;;;;;;27.40;46.79;99795.98;257245;1096;114610;-76
2021/07/28 18:13:16;;;;;;;6.33;5.43;;;;;;;27.18;47.48;99812.63;258974;1096;114238;-78
2021/07/28 18:18:19;;;;;;;6.53;6.03;;;;;;;27.07;48.09;99809.13;260771;1096;114273;-75
2021/07/28 18:23:21;;;;;;;6.68;6.00;;;;;;;27.00;48.47;99813.22;261827;1096;113482;-76
2021/07/28 18:28:23;;;;;;;6.38;5.83;;;;;;;26.95;48.73;99816.73;259414;1095;114443;-76
2021/07/28 18:33:26;;;;;;;7.03;6.28;;;;;;;26.87;49.02;99814.58;257419;1095;114504;-76
2021/07/28 18:38:29;;;;;;;6.93;6.33;;;;;;;26.80;49.09;99814.89;257528;1096;114559;-77
2021/07/28 18:43:31;;;;;;;7.20;6.53;;;;;;;26.75;49.46;99816.78;257289;1096;114478;-76
2021/07/28 18:48:33;;;;;;;6.60;6.00;;;;;;;26.74;50.06;99839.56;257368;1095;114755;-75
2021/07/28 18:53:37;;;;;;;7.78;6.83;;;;;;;25.50;56.56;99907.27;257610;1096;114840;-77
2021/07/28 18:58:41;;;;;;;12.68;5.43;;;;;;;24.74;59.42;99919.20;257670;1095;114850;-77
2021/07/28 19:03:46;;;;;;;6.90;4.83;;;;;;;24.02;62.20;99925.76;257530;1095;114404;-80
2021/07/28 19:08:52;;;;;;;5.80;4.75;;;;;;;24.03;62.07;99924.71;258190;1096;114689;-75
2021/07/28 19:14:05;;;;;;;11.35;4.80;;;;;;;23.92;62.20;99933.76;258509;1096;114962;-77
2021/07/28 19:19:11;;;;;;;5.53;4.50;;;;;;;23.78;61.89;99927.91;257877;1096;114822;-74
2021/07/28 19:24:18;;;;;;;4.95;4.40;;;;;;;23.92;61.95;99928.36;258550;1096;114533;-75
2021/07/28 19:29:21;;;;;;;4.33;3.97;;;;;;;23.68;62.74;99928.62;257723;1096;114126;-74
2021/07/28 19:34:23;;;;;;;7.10;5.08;;;;;;;23.67;64.15;99935.05;257816;1096;114299;-75
2021/07/28 19:39:27;;;;;;;4.38;3.98;;;;;;;24.08;62.25;99927.46;257311;1096;114242;-76
2021/07/28 19:44:29;;;;;;;6.18;4.35;;;;;;;23.92;62.88;99945.37;257226;1096;114250;-76
2021/07/28 19:49:31;;;;;;;7.68;6.80;;;;;;;23.40;66.31;99983.48;256812;1096;114919;-75
2021/07/28 19:54:34;;;;;;;5.55;4.93;;;;;;;22.43;70.78;100045.66;257146;1096;114255;-75
2021/07/28 19:59:38;;;;;;;5.83;4.98;;;;;;;22.05;72.40;100060.48;257064;1096;115004;-75
2021/07/28 20:04:44;;;;;;;6.60;4.98;;;;;;;21.70;75.38;100074.78;257555;1096;114409;-76
2021/07/28 20:09:46;;;;;;;6.45;5.70;;;;;;;21.55;76.46;100085.17;257193;1096;114495;-74
2021/07/28 20:14:48;;;;;;;5.88;5.28;;;;;;;21.21;77.08;100071.41;256897;1095;115706;-77
2021/07/28 20:19:50;;;;;;;6.93;3.80;;;;;;;20.78;78.78;100040.22;257042;1096;115578;-73
2021/07/28 20:24:53;;;;;;;8.58;5.10;;;;;;;20.69;81.27;100033.54;256545;1096;115668;-77
2021/07/28 20:29:59;;;;;;;6.08;4.60;;;;;;;21.46;78.28;100025.55;256866;1096;114721;-74
2021/07/28 20:35:02;;;;;;;5.60;4.80;;;;;;;21.91;75.82;100045.63;257259;1095;115665;-78
2021/07/28 20:40:09;;;;;;;5.18;4.10;;;;;;;22.04;74.89;100042.70;257171;1095;114451;-74
2021/07/28 20:45:11;;;;;;;4.68;4.10;;;;;;;22.01;74.39;100062.83;257149;1095;114285;-79
2021/07/28 20:50:14;;;;;;;8.23;7.43;;;;;;;22.05;74.94;100065.05;257467;1096;115563;-73
2021/07/28 20:55:16;;;;;;;5.25;4.73;;;;;;;21.91;77.78;100053.70;257035;1095;114295;-74
2021/07/28 21:00:18;;;;;;;4.73;4.33;;;;;;;21.76;77.28;100041.54;256964;1096;115468;-74
2021/07/28 21:05:25;;;;;;;5.80;4.18;;;;;;;21.86;77.66;100034.77;256841;1096;114232;-74
2021/07/28 21:10:28;;;;;;;4.98;4.53;;;;;;;21.84;78.12;100000.02;257114;1096;114451;-75
2021/07/28 21:15:30;;;;;;;5.83;5.20;;;;;;;21.98;77.43;99984.44;257669;1095;114695;-75
2021/07/28 21:20:32;;;;;;;5.58;4.18;;;;;;;22.06;76.78;99970.61;257923;1096;114158;-74
2021/07/28 21:25:36;;;;;;;4.53;4.10;;;;;;;22.24;76.11;99962.39;258812;1096;114215;-75
2021/07/28 21:30:40;;;;;;;4.60;3.93;;;;;;;22.08;76.31;99984.66;258006;1096;114490;-77
2021/07/28 21:35:44;;;;;;;3.90;3.60;;;;;;;21.86;77.76;99997.10;257845;1096;114197;-75
2021/07/28 21:40:46;;;;;;;4.87;4.07;;;;;;;21.78;78.06;99996.41;258626;1096;114200;-75
2021/07/28 21:45:56;;;;;;;5.18;4.48;;;;;;;21.88;77.92;99993.10;258004;1096;114397;-77
2021/07/28 21:51:00;;;;;;;4.90;4.28;;;;;;;21.84;77.48;99980.36;258168;1096;114368;-76
2021/07/28 21:56:08;;;;;;;6.13;3.80;;;;;;;21.84;77.40;99967.73;257280;1096;114137;-76
2021/07/28 22:01:21;;;;;;;5.73;4.15;;;;;;;21.45;78.11;100002.41;258613;1096;114258;-75
2021/07/28 22:06:24;;;;;;;4.93;4.13;;;;;;;21.42;78.72;99996.68;259475;1096;114485;-73
2021/07/28 22:11:26;;;;;;;4.40;4.10;;;;;;;21.12;79.60;99997.55;257980;1095;114271;-75
2021/07/28 22:16:28;;;;;;;5.18;4.43;;;;;;;21.35;79.08;99979.84;257337;1096;114381;-74
2021/07/28 22:21:30;;;;;;;4.85;4.38;;;;;;;21.59;79.54;99933.05;257642;1096;114834;-73
2021/07/28 22:26:36;;;;;;;4.40;4.10;;;;;;;21.74;78.55;99913.73;258407;1096;114522;-74
2021/07/28 22:31:42;;;;;;;5.23;4.53;;;;;;;21.74;78.42;99928.00;258873;1096;114340;-75
2021/07/28 22:36:46;;;;;;;5.08;4.68;;;;;;;21.75;77.84;99942.26;257888;1095;114205;-74
2021/07/28 22:41:53;;;;;;;4.95;4.48;;;;;;;21.17;79.98;99978.85;258301;1096;114230;-73
2021/07/28 22:47:00;;;;;;;6.40;4.50;;;;;;;20.87;80.57;99988.84;258580;1096;114094;-75
2021/07/28 22:57:26;;;;;;;7.13;5.40;;;;;;;20.80;80.84;99964.80;257859;1096;114223;-75
2021/07/28 23:07:49;;;;;;;6.28;5.68;;;;;;;20.75;81.08;99980.77;258762;1096;114185;-74
2021/07/28 23:12:53;;;;;;;6.20;5.48;;;;;;;20.94;80.66;99958.14;259868;1096;114011;-76
2021/07/28 23:17:56;;;;;;;6.07;5.50;;;;;;;21.17;80.66;99919.73;257639;1096;114111;-63
2021/07/28 23:22:59;;;;;;;5.98;5.40;;;;;;;21.40;79.84;99927.00;257941;1096;114751;-76
2021/07/28 23:28:07;;;;;;;6.55;6.05;;;;;;;21.51;78.96;99920.79;258321;1095;114633;-76
2021/07/28 23:33:12;;;;;;;7.10;6.40;;;;;;;21.23;79.44;99934.93;257760;1096;114816;-76
2021/07/28 23:38:15;;;;;;;9.00;8.20;;;;;;;20.90;81.13;99945.41;257625;1095;114430;-75
2021/07/28 23:43:17;;;;;;;8.85;8.05;;;;;;;20.98;80.76;99937.83;258656;1096;114201;-74
2021/07/28 23:48:21;;;;;;;9.58;8.58;;;;;;;21.15;80.17;99937.97;257658;1096;114108;-79
2021/07/28 23:53:26;;;;;;;9.40;8.60;;;;;;;20.94;80.58;99951.96;257933;1096;116105;-75
2021/07/28 23:58:30;;;;;;;12.05;9.58;;;;;;;20.75;81.05;99948.53;257659;1096;114335;-70
